Time;durP1;ratioP1;P1;durP2;ratioP2;P2;SDS_P1;SDS_P2;PMS_P1;PMS_P2;Temp;Humidity;BMP_temperature;BMP_pressure;BME280_temperature;BME280_humidity;BME280_pressure;Samples;Min_cycle;Max_cycle;Signal;HPM_P1;HPM_P2
2023/06/20 00:00:52;;;;;;;;;;;21.90;99.90;;;;;;5087469;28;20373;-85
2023/06/20 00:03:18;;;;;;;;;;;21.90;99.90;;;;;;5077284;28;20364;-86
2023/06/20 00:05:44;;;;;;;;;;;21.90;99.90;;;;;;5076264;28;19920;-86
2023/06/20 00:08:10;;;;;;;;;;;21.90;99.90;;;;;;5076388;28;19912;-86
2023/06/20 00:10:35;;;;;;;;;;;21.90;99.90;;;;;;5058639;28;20367;-85
2023/06/20 00:13:01;;;;;;;;;;;21.80;99.90;;;;;;5075879;28;19908;-85
2023/06/20 00:15:27;;;;;;;;;;;21.80;99.90;;;;;;5058469;28;19909;-85
2023/06/20 00:17:53;;;;;;;;;;;21.80;99.90;;;;;;5075055;28;19999;-85
2023/06/20 00:20:19;;;;;;;;;;;21.80;99.90;;;;;;5074650;28;20356;-84
2023/06/20 00:22:44;;;;;;;;;;;21.80;99.90;;;;;;5074233;28;19909;-85
2023/06/20 00:31:46;;;;;;;;;;;21.80;99.90;;;;;;5074237;28;19931;-84
2023/06/20 00:34:12;;;;;;;;;;;21.80;99.90;;;;;;5073278;28;19908;-85
2023/06/20 00:36:39;;;;;;;;;;;21.80;99.90;;;;;;5074328;28;19908;-85
2023/06/20 00:39:07;;;;;;;;;;;21.70;99.90;;;;;;5073949;28;20003;-85
2023/06/20 00:41:33;;;;;;;;;;;21.60;99.90;;;;;;5075699;28;19998;-84
2023/06/20 00:44:03;;;;;;;;;;;21.70;99.90;;;;;;5077598;28;19943;-85
2023/06/20 00:46:30;;;;;;;;;;;21.60;99.90;;;;;;5060881;28;20389;-85
2023/06/20 00:48:56;;;;;;;;;;;20.90;99.90;;;;;;5076979;28;20367;-84
2023/06/20 00:51:22;;;;;;;;;;;20.50;99.90;;;;;;5076854;28;19951;-85
2023/06/20 00:53:48;;;;;;;;;;;20.20;99.90;;;;;;5075614;28;20352;-86
2023/06/20 00:56:14;;;;;;;;;;;19.50;99.90;;;;;;5058741;28;19915;-84
2023/06/20 00:58:39;;;;;;;;;;;18.60;99.90;;;;;;5074965;28;19915;-85
2023/06/20 01:01:06;;;;;;;;;;;18.20;99.90;;;;;;5074461;28;20364;-85
2023/06/20 01:03:32;;;;;;;;;;;17.90;99.90;;;;;;5075547;28;19908;-86
2023/06/20 01:06:12;;;;;;;;;;;17.80;99.90;;;;;;5075268;28;19931;-86
2023/06/20 01:08:46;;;;;;;;;;;17.70;99.90;;;;;;5075207;28;19912;-86
2023/06/20 01:11:21;;;;;;;;;;;17.70;99.90;;;;;;5058477;28;19912;-85
2023/06/20 01:13:50;;;;;;;;;;;17.60;99.90;;;;;;5075131;28;19986;-86
2023/06/20 01:16:15;;;;;;;;;;;17.60;99.90;;;;;;5058745;28;19915;-86
2023/06/20 01:18:57;;;;;;;;;;;17.60;99.90;;;;;;5074871;28;19908;-86
2023/06/20 01:21:34;;;;;;;;;;;17.60;99.90;;;;;;5070700;28;19909;-85
2023/06/20 01:24:04;;;;;;;;;;;17.60;99.90;;;;;;5075606;28;19999;-84
2023/06/20 01:26:29;;;;;;;;;;;17.60;99.90;;;;;;5073984;28;19923;-84
2023/06/20 01:29:02;;;;;;;;;;;17.70;99.90;;;;;;5053499;28;19912;-84
2023/06/20 01:31:29;;;;;;;;;;;17.80;99.90;;;;;;5078379;28;19915;-84
2023/06/20 01:34:00;;;;;;;;;;;17.80;99.90;;;;;;5056683;28;19919;-83
2023/06/20 01:36:30;;;;;;;;;;;17.80;99.90;;;;;;5073424;28;20432;-83
2023/06/20 01:39:01;;;;;;;;;;;17.80;99.90;;;;;;5089265;28;19912;-83
2023/06/20 01:41:29;;;;;;;;;;;17.70;99.90;;;;;;5073406;28;19915;-83
2023/06/20 01:43:56;;;;;;;;;;;17.70;99.90;;;;;;5056819;28;20267;-83
2023/06/20 01:46:24;;;;;;;;;;;17.60;99.90;;;;;;5056868;28;19904;-83
2023/06/20 01:48:50;;;;;;;;;;;17.60;99.90;;;;;;5073206;28;19977;-85
2023/06/20 01:51:37;;;;;;;;;;;17.60;99.90;;;;;;5056216;28;19909;-85
2023/06/20 01:54:05;;;;;;;;;;;17.60;99.90;;;;;;5065702;28;20023;-84
2023/06/20 01:56:31;;;;;;;;;;;17.50;99.90;;;;;;5073304;28;19966;-84
2023/06/20 01:58:59;;;;;;;;;;;17.50;99.90;;;;;;5057106;28;20283;-84
2023/06/20 02:01:25;;;;;;;;;;;17.60;99.90;;;;;;5056904;28;19928;-84
2023/06/20 02:03:53;;;;;;;;;;;17.60;99.90;;;;;;5073454;28;19932;-84
2023/06/20 02:06:20;;;;;;;;;;;17.60;99.90;;;;;;5056933;28;19904;-84
2023/06/20 02:11:49;;;;;;;;;;;17.60;99.90;;;;;;5072665;28;19917;-85
2023/06/20 02:14:15;;;;;;;;;;;17.60;99.90;;;;;;5067241;28;20020;-84
2023/06/20 02:16:42;;;;;;;;;;;17.60;99.90;;;;;;5081845;28;19908;-84
2023/06/20 02:19:09;;;;;;;;;;;17.50;99.90;;;;;;5073363;28;19909;-84
2023/06/20 02:21:37;;;;;;;;;;;17.60;99.90;;;;;;5071875;28;19931;-84
2023/06/20 02:24:05;;;;;;;;;;;17.60;99.90;;;;;;5063564;28;19962;-85
2023/06/20 02:26:32;;;;;;;;;;;17.50;99.90;;;;;;5084734;28;19959;-85
2023/06/20 02:28:59;;;;;;;;;;;17.60;99.90;;;;;;5067051;28;19951;-85
2023/06/20 02:31:30;;;;;;;;;;;17.60;99.90;;;;;;5086612;28;19922;-85
2023/06/20 02:33:57;;;;;;;;;;;17.70;99.90;;;;;;5059980;28;19944;-84
2023/06/20 02:36:25;;;;;;;;;;;17.60;99.90;;;;;;5060412;28;19919;-85
2023/06/20 02:39:09;;;;;;;;;;;17.60;99.90;;;;;;5076703;28;19952;-84
2023/06/20 02:41:35;;;;;;;;;;;17.60;99.90;;;;;;5057426;28;19982;-85
2023/06/20 02:44:00;;;;;;;;;;;17.50;99.90;;;;;;5058073;28;19916;-85
2023/06/20 02:46:41;;;;;;;;;;;17.50;99.90;;;;;;5057819;28;19936;-85
2023/06/20 02:49:07;;;;;;;;;;;17.50;99.90;;;;;;5072880;28;19915;-85
2023/06/20 02:51:44;;;;;;;;;;;17.50;99.90;;;;;;5060739;28;19904;-85
2023/06/20 02:54:17;;;;;;;;;;;17.50;99.90;;;;;;5073822;28;19913;-85
2023/06/20 02:56:44;;;;;;;;;;;17.50;99.90;;;;;;5056457;28;19912;-85
2023/06/20 02:59:10;;;;;;;;;;;17.50;99.90;;;;;;5056592;28;20387;-85
2023/06/20 03:01:37;;;;;;;;;;;17.40;99.90;;;;;;5073059;28;19908;-85
2023/06/20 03:04:04;;;;;;;;;;;17.40;99.90;;;;;;5055730;28;24053;-84
2023/06/20 03:06:30;;;;;;;;;;;17.30;99.90;;;;;;5055564;28;20524;-84
2023/06/20 03:08:57;;;;;;;;;;;17.30;99.90;;;;;;5072005;28;19987;-85
2023/06/20 03:11:23;;;;;;;;;;;17.30;99.90;;;;;;5054947;28;19908;-85
2023/06/20 03:13:49;;;;;;;;;;;17.20;99.90;;;;;;5072665;28;19908;-85
2023/06/20 03:16:15;;;;;;;;;;;17.20;99.90;;;;;;5056021;28;19995;-85
2023/06/20 03:18:40;;;;;;;;;;;17.20;99.90;;;;;;5073332;28;20018;-85
2023/06/20 03:21:06;;;;;;;;;;;17.20;99.90;;;;;;5077857;28;19958;-83
2023/06/20 03:23:32;;;;;;;;;;;17.20;99.90;;;;;;5055054;28;19951;-83
2023/06/20 03:25:58;;;;;;;;;;;17.20;99.90;;;;;;5055043;28;19934;-83
2023/06/20 03:28:24;;;;;;;;;;;17.20;99.90;;;;;;5071403;28;19912;-83
2023/06/20 03:30:52;;;;;;;;;;;17.20;99.90;;;;;;5054721;28;19961;-82
2023/06/20 03:33:19;;;;;;;;;;;17.10;99.90;;;;;;5055381;28;19911;-83
2023/06/20 03:35:45;;;;;;;;;;;17.10;99.90;;;;;;5055248;28;24073;-83
2023/06/20 03:38:12;;;;;;;;;;;17.10;99.90;;;;;;5055049;28;19912;-83
2023/06/20 03:40:37;;;;;;;;;;;17.10;99.90;;;;;;5055462;28;20355;-83
2023/06/20 03:43:03;;;;;;;;;;;17.10;99.90;;;;;;5071827;28;19909;-83
2023/06/20 03:45:30;;;;;;;;;;;17.10;99.90;;;;;;5055232;28;19930;-84
2023/06/20 03:47:56;;;;;;;;;;;17.10;99.90;;;;;;5071694;28;20334;-83
2023/06/20 03:50:21;;;;;;;;;;;17.10;99.90;;;;;;5054827;28;19931;-83
2023/06/20 03:52:47;;;;;;;;;;;17.00;99.90;;;;;;5071398;28;19993;-83
2023/06/20 03:55:14;;;;;;;;;;;17.10;99.90;;;;;;5054552;28;19909;-84
2023/06/20 03:57:40;;;;;;;;;;;17.10;99.90;;;;;;5055150;28;19923;-84
2023/06/20 04:00:12;;;;;;;;;;;17.10;99.90;;;;;;5071550;28;19912;-84
2023/06/20 04:02:44;;;;;;;;;;;17.10;99.90;;;;;;5055019;28;20018;-84
2023/06/20 04:05:11;;;;;;;;;;;17.10;99.90;;;;;;5071549;28;19912;-84
2023/06/20 04:07:42;;;;;;;;;;;17.10;99.90;;;;;;5054780;28;20007;-84
2023/06/20 04:10:12;;;;;;;;;;;17.10;99.90;;;;;;5054861;28;19962;-83
2023/06/20 04:12:38;;;;;;;;;;;17.10;99.90;;;;;;5054381;28;19966;-83
2023/06/20 04:15:05;;;;;;;;;;;17.10;99.90;;;;;;5054604;28;19912;-84
2023/06/20 04:17:31;;;;;;;;;;;17.10;99.90;;;;;;5055250;28;20515;-84
2023/06/20 04:19:57;;;;;;;;;;;17.20;99.90;;;;;;5075315;28;19920;-84
2023/06/20 04:22:26;;;;;;;;;;;17.20;99.90;;;;;;5058229;28;20390;-83
2023/06/20 04:24:55;;;;;;;;;;;17.20;99.90;;;;;;5074843;28;19946;-83
2023/06/20 04:27:21;;;;;;;;;;;17.30;99.90;;;;;;5074635;28;19919;-83
2023/06/20 04:29:53;;;;;;;;;;;17.30;99.90;;;;;;5074561;28;19916;-83
2023/06/20 04:32:19;;;;;;;;;;;17.30;99.90;;;;;;5057623;28;20283;-83
2023/06/20 04:34:45;;;;;;;;;;;17.30;99.90;;;;;;5074673;28;19928;-83
2023/06/20 04:37:11;;;;;;;;;;;17.40;99.90;;;;;;5075049;28;19908;-83
2023/06/20 04:39:37;;;;;;;;;;;17.40;99.90;;;;;;5074558;28;19915;-82
2023/06/20 04:42:04;;;;;;;;;;;17.40;99.90;;;;;;5058210;28;19915;-82
2023/06/20 04:44:29;;;;;;;;;;;17.40;99.90;;;;;;5074418;28;19912;-82
2023/06/20 04:46:55;;;;;;;;;;;17.50;99.90;;;;;;5072760;28;20008;-83
2023/06/20 04:49:21;;;;;;;;;;;17.60;99.90;;;;;;5056545;28;19912;-83
2023/06/20 04:51:48;;;;;;;;;;;17.60;99.90;;;;;;5057356;28;20003;-83
2023/06/20 04:54:31;;;;;;;;;;;17.60;99.90;;;;;;5057726;28;19947;-82
2023/06/20 04:56:57;;;;;;;;;;;17.70;99.90;;;;;;5073073;28;19912;-82
2023/06/20 04:59:23;;;;;;;;;;;17.80;99.90;;;;;;5057176;28;19908;-82
2023/06/20 05:01:51;;;;;;;;;;;17.80;99.90;;;;;;5073674;28;19915;-82
2023/06/20 05:04:17;;;;;;;;;;;17.90;99.90;;;;;;5057246;28;19909;-82
2023/06/20 05:06:43;;;;;;;;;;;17.90;99.90;;;;;;5073461;28;19915;-82
2023/06/20 05:09:10;;;;;;;;;;;18.00;99.90;;;;;;5057398;28;20334;-82
2023/06/20 05:11:35;;;;;;;;;;;18.00;99.90;;;;;;5074246;28;19912;-82
2023/06/20 05:14:01;;;;;;;;;;;18.10;99.90;;;;;;5057238;28;19916;-81
2023/06/20 05:16:27;;;;;;;;;;;18.20;99.90;;;;;;5074411;28;19912;-83
2023/06/20 05:19:08;;;;;;;;;;;18.30;99.90;;;;;;5074089;28;19904;-82
2023/06/20 05:21:33;;;;;;;;;;;18.30;99.90;;;;;;5074239;28;20457;-83
2023/06/20 05:23:59;;;;;;;;;;;18.40;99.90;;;;;;5057434;28;19932;-83
2023/06/20 05:26:24;;;;;;;;;;;18.50;99.90;;;;;;5074481;28;19997;-83
2023/06/20 05:28:51;;;;;;;;;;;18.60;99.90;;;;;;5056320;28;19909;-83
2023/06/20 05:31:16;;;;;;;;;;;18.70;99.90;;;;;;5056813;28;20279;-83
2023/06/20 05:33:42;;;;;;;;;;;18.70;99.90;;;;;;5056532;28;19920;-83
2023/06/20 05:36:08;;;;;;;;;;;18.80;99.90;;;;;;5057152;28;19970;-83
2023/06/20 05:38:35;;;;;;;;;;;18.70;99.90;;;;;;5061507;28;19919;-83
2023/06/20 05:41:01;;;;;;;;;;;18.70;99.90;;;;;;5061128;28;19970;-83
2023/06/20 05:43:26;;;;;;;;;;;18.70;99.90;;;;;;5081539;28;19909;-83
2023/06/20 05:45:52;;;;;;;;;;;18.80;99.90;;;;;;5067110;28;19912;-82
2023/06/20 05:48:18;;;;;;;;;;;18.90;99.90;;;;;;5066882;28;20278;-81
2023/06/20 05:50:43;;;;;;;;;;;19.00;99.90;;;;;;5090840;28;19908;-82
2023/06/20 05:53:09;;;;;;;;;;;19.00;99.90;;;;;;5066242;28;19954;-82
2023/06/20 05:55:34;;;;;;;;;;;19.10;99.90;;;;;;5063429;28;19916;-82
2023/06/20 05:58:00;;;;;;;;;;;19.10;99.90;;;;;;5067600;28;19927;-82
2023/06/20 06:00:26;;;;;;;;;;;19.10;99.90;;;;;;5062191;28;19909;-82
2023/06/20 06:02:51;;;;;;;;;;;19.30;99.90;;;;;;5053356;28;19920;-82
2023/06/20 06:05:17;;;;;;;;;;;19.30;99.90;;;;;;5062951;28;19908;-82
2023/06/20 06:07:43;;;;;;;;;;;19.30;99.90;;;;;;5067067;28;19914;-82
2023/06/20 06:10:08;;;;;;;;;;;19.30;99.90;;;;;;5064248;28;20474;-81
2023/06/20 06:12:37;;;;;;;;;;;19.40;99.90;;;;;;5058240;28;19912;-81
2023/06/20 06:15:04;;;;;;;;;;;19.30;99.90;;;;;;5070472;28;20249;-82
2023/06/20 06:17:30;;;;;;;;;;;19.30;99.90;;;;;;5061106;28;19913;-82
2023/06/20 06:19:56;;;;;;;;;;;19.40;99.90;;;;;;5068846;28;19918;-82
2023/06/20 06:22:22;;;;;;;;;;;19.40;99.90;;;;;;5042783;28;19908;-82
2023/06/20 06:24:47;;;;;;;;;;;19.40;99.90;;;;;;5077504;28;19912;-82
2023/06/20 06:27:13;;;;;;;;;;;19.40;99.90;;;;;;5053126;28;19912;-83
2023/06/20 06:29:39;;;;;;;;;;;19.50;99.90;;;;;;5051638;28;20333;-83
2023/06/20 06:32:05;;;;;;;;;;;19.50;99.90;;;;;;5074094;28;19916;-83
2023/06/20 06:34:30;;;;;;;;;;;19.60;99.90;;;;;;5067032;28;20360;-83
2023/06/20 06:36:56;;;;;;;;;;;19.70;99.90;;;;;;5069827;28;19908;-82
2023/06/20 06:39:22;;;;;;;;;;;19.70;99.90;;;;;;5070712;28;19920;-82
2023/06/20 06:41:51;;;;;;;;;;;19.70;99.90;;;;;;5064430;28;19916;-82
2023/06/20 06:44:17;;;;;;;;;;;19.70;99.90;;;;;;5052053;28;20053;-82
2023/06/20 06:46:43;;;;;;;;;;;19.70;99.90;;;;;;5056003;28;20387;-82
2023/06/20 06:49:09;;;;;;;;;;;19.80;99.90;;;;;;5069121;28;19908;-83
2023/06/20 06:51:44;;;;;;;;;;;19.90;99.90;;;;;;5057480;28;20280;-83
2023/06/20 06:54:09;;;;;;;;;;;20.00;99.90;;;;;;5063312;28;19908;-82
2023/06/20 06:56:35;;;;;;;;;;;20.00;99.90;;;;;;5061103;28;19938;-82
2023/06/20 06:59:02;;;;;;;;;;;20.10;99.90;;;;;;5066099;28;19917;-82
2023/06/20 07:01:28;;;;;;;;;;;20.10;99.90;;;;;;5063476;28;19952;-83
2023/06/20 07:03:54;;;;;;;;;;;20.20;99.90;;;;;;5056083;28;19908;-82
2023/06/20 07:06:20;;;;;;;;;;;20.30;99.90;;;;;;5064371;28;19905;-83
2023/06/20 07:08:46;;;;;;;;;;;20.50;99.90;;;;;;5058151;28;19909;-84
2023/06/20 07:11:11;;;;;;;;;;;21.00;99.90;;;;;;5052243;28;19962;-83
2023/06/20 07:13:37;;;;;;;13.77;11.85;;;21.80;99.90;;;;;;5060885;28;19916;-84
2023/06/20 07:16:04;;;;;;;14.90;10.93;;;23.10;99.90;;;;;;5052426;28;20082;-84
2023/06/20 07:18:29;;;;;;;;;;;24.40;99.90;;;;;;5045287;28;20012;-83
2023/06/20 07:20:57;;;;;;;;;;;25.50;99.90;;;;;;5068423;28;19995;-84
2023/06/20 07:23:23;;;;;;;;;;;26.20;99.90;;;;;;5062250;28;19917;-84
2023/06/20 07:25:48;;;;;;;;;;;26.50;99.90;;;;;;5070664;28;20429;-84
2023/06/20 07:28:14;;;;;;;;;;;26.60;99.90;;;;;;5050168;28;19916;-84
2023/06/20 07:30:40;;;;;;;;;;;26.50;99.90;;;;;;5065400;28;19908;-84
2023/06/20 07:33:06;;;;;;;;;;;27.00;99.90;;;;;;5067317;28;19909;-85
2023/06/20 07:35:32;;;;;;;18.30;10.25;;;27.50;99.90;;;;;;5065889;28;19975;-84
2023/06/20 07:37:59;;;;;;;13.95;10.13;;;27.80;99.90;;;;;;5051450;28;20048;-84
2023/06/20 07:40:24;;;;;;;10.48;9.40;;;27.70;99.90;;;;;;5065004;28;20027;-84
2023/06/20 07:42:50;;;;;;;15.73;10.25;;;27.50;99.90;;;;;;5064674;28;20459;-84
2023/06/20 07:45:16;;;;;;;11.70;10.50;;;27.00;99.90;;;;;;5075372;28;20016;-85
2023/06/20 07:47:41;;;;;;;12.30;11.00;;;25.80;99.90;;;;;;5067930;28;20020;-84
2023/06/20 07:50:08;;;;;;;17.23;12.43;;;25.00;99.90;;;;;;5072489;28;20032;-84
2023/06/20 07:52:34;;;;;;;19.88;12.95;;;24.20;99.90;;;;;;5058369;28;20033;-83
2023/06/20 07:55:01;;;;;;;13.40;11.85;;;23.60;99.90;;;;;;5074809;28;20119;-83
2023/06/20 07:57:27;;;;;;;19.25;12.90;;;23.40;99.90;;;;;;5058661;28;20025;-82
2023/06/20 07:59:53;;;;;;;16.70;12.68;;;23.50;99.90;;;;;;5058244;28;20032;-83
2023/06/20 08:02:19;;;;;;;12.48;11.02;;;24.50;99.90;;;;;;5074460;28;20028;-82
2023/06/20 08:04:44;;;;;;;12.82;10.73;;;25.50;99.90;;;;;;5058131;28;20134;-82
2023/06/20 08:07:10;;;;;;;12.38;10.65;;;27.10;99.90;;;;;;5074970;28;20376;-82
2023/06/20 08:09:36;;;;;;;12.85;10.02;;;28.20;99.90;;;;;;5074829;28;20024;-82
2023/06/20 08:12:02;;;;;;;11.20;9.70;;;28.80;99.90;;;;;;5058148;28;20037;-83
2023/06/20 08:14:27;;;;;;;11.80;9.68;;;29.30;99.90;;;;;;5074747;28;20114;-83
2023/06/20 08:16:53;;;;;;;11.38;9.82;;;29.40;99.90;;;;;;5075466;28;20032;-83
2023/06/20 08:19:19;;;;;;;12.48;9.32;;;29.90;99.90;;;;;;5073816;28;20037;-83
2023/06/20 08:21:44;;;;;;;15.27;9.52;;;30.70;99.90;;;;;;5058126;28;20039;-84
2023/06/20 08:24:10;;;;;;;14.07;8.88;;;31.50;99.90;;;;;;5057934;28;20032;-84
2023/06/20 08:26:36;;;;;;;13.98;9.38;;;31.30;99.90;;;;;;5058055;28;20403;-84
2023/06/20 08:29:02;;;;;;;13.25;9.05;;;31.30;99.90;;;;;;5065748;28;20033;-83
2023/06/20 08:31:37;;;;;;;10.05;8.98;;;31.50;99.90;;;;;;5053142;28;20033;-83
2023/06/20 08:34:04;;;;;;;12.88;9.27;;;30.90;99.90;;;;;;5068475;28;20044;-83
2023/06/20 08:36:30;;;;;;;12.00;9.10;;;31.20;99.90;;;;;;5067402;28;20032;-83
2023/06/20 08:38:56;;;;;;;12.45;9.70;;;31.40;99.90;;;;;;5088482;28;20082;-82
2023/06/20 08:41:40;;;;;;;11.98;9.80;;;31.40;99.90;;;;;;5063188;28;20048;-83
2023/06/20 08:44:05;;;;;;;10.90;9.23;;;31.00;99.90;;;;;;5076372;28;20050;-84
2023/06/20 08:46:32;;;;;;;12.93;9.27;;;30.70;99.90;;;;;;5068511;28;20431;-82
2023/06/20 08:49:42;;;;;;;12.40;9.82;;;31.40;99.90;;;;;;5068954;28;20025;-83
2023/06/20 08:52:12;;;;;;;13.40;9.80;;;31.60;99.90;;;;;;5058834;28;20040;-85
2023/06/20 08:54:41;;;;;;;11.90;9.30;;;31.20;99.90;;;;;;5057546;28;20056;-85
2023/06/20 08:57:07;;;;;;;19.33;9.80;;;30.90;99.90;;;;;;5080500;28;20024;-82
2023/06/20 08:59:45;;;;;;;10.80;8.95;;;30.90;99.90;;;;;;5057718;28;20031;-83
2023/06/20 09:02:23;;;;;;;10.88;9.02;;;31.00;99.90;;;;;;5073330;28;20052;-83
2023/06/20 09:05:05;;;;;;;8.75;7.82;;;31.20;99.90;;;;;;5071005;28;20387;-83
2023/06/20 09:07:38;;;;;;;14.07;10.52;;;31.60;99.90;;;;;;5075992;28;20028;-84
2023/06/20 09:10:05;;;;;;;13.93;9.00;;;31.70;99.90;;;;;;5058929;28;20020;-83
2023/06/20 09:12:47;;;;;;;10.00;9.00;;;31.40;99.90;;;;;;5057614;28;20024;-83
2023/06/20 09:15:21;;;;;;;12.63;9.63;;;31.40;99.90;;;;;;5073734;28;20037;-83
2023/06/20 09:18:00;;;;;;;14.07;8.73;;;31.60;99.90;;;;;;5057307;28;20028;-83
2023/06/20 09:20:31;;;;;;;11.93;9.77;;;31.70;99.90;;;;;;5050265;28;20502;-83
2023/06/20 09:22:57;;;;;;;14.02;10.43;;;31.70;99.90;;;;;;5064013;28;20031;-83
2023/06/20 09:25:26;;;;;;;16.30;9.50;;;31.10;99.90;;;;;;5074458;28;20075;-83
2023/06/20 09:27:53;;;;;;;9.75;8.75;;;31.00;99.90;;;;;;5074806;28;20036;-83
2023/06/20 09:30:19;;;;;;;10.45;9.02;;;30.90;99.90;;;;;;5059976;28;20039;-83
2023/06/20 09:32:45;;;;;;;10.98;8.60;;;31.00;99.90;;;;;;5090548;28;20033;-83
2023/06/20 09:35:14;;;;;;;10.43;8.68;;;30.70;99.90;;;;;;5073226;28;20127;-83
2023/06/20 09:37:41;;;;;;;10.90;8.13;;;30.80;99.90;;;;;;5073543;28;20024;-84
2023/06/20 09:40:12;;;;;;;10.23;8.55;;;31.00;99.90;;;;;;5073265;28;20094;-84
2023/06/20 09:42:39;;;;;;;11.18;9.23;;;32.00;99.90;;;;;;5073899;28;20033;-85
2023/06/20 09:45:06;;;;;;;12.07;8.27;;;32.80;99.90;;;;;;5057037;28;20025;-84
2023/06/20 09:47:35;;;;;;;10.30;7.93;;;33.30;99.90;;;;;;5057080;28;20472;-82
2023/06/20 09:50:13;;;;;;;9.57;8.45;;;33.40;99.90;;;;;;5050206;28;20033;-83
2023/06/20 09:52:50;;;;;;;11.48;8.77;;;33.80;99.90;;;;;;5060310;28;20040;-83
2023/06/20 09:55:18;;;;;;;10.70;8.40;;;33.70;99.90;;;;;;5082537;28;20032;-84
2023/06/20 09:57:53;;;;;;;8.30;7.35;;;33.80;99.60;;;;;;5050324;28;20029;-83
2023/06/20 10:00:20;;;;;;;10.38;7.15;;;33.90;99.40;;;;;;5067278;28;20507;-83
2023/06/20 10:02:47;;;;;;;8.18;7.18;;;34.20;98.90;;;;;;5050397;28;20127;-83
2023/06/20 10:05:15;;;;;;;10.45;7.82;;;33.40;99.20;;;;;;5081001;28;20044;-83
2023/06/20 10:07:43;;;;;;;10.65;7.85;;;33.50;99.90;;;;;;5071797;28;20028;-83
2023/06/20 10:10:10;;;;;;;9.50;8.50;;;33.80;99.90;;;;;;5082707;28;20084;-84
2023/06/20 10:12:38;;;;;;;13.18;8.85;;;33.60;99.40;;;;;;5047200;28;20032;-84
2023/06/20 10:15:05;;;;;;;9.05;8.15;;;33.20;99.10;;;;;;5062971;28;20025;-84
2023/06/20 10:17:35;;;;;;;13.32;8.77;;;33.30;99.90;;;;;;5046191;28;20035;-84
2023/06/20 10:20:04;;;;;;;8.95;8.05;;;32.90;99.00;;;;;;5061301;28;20503;-83
2023/06/20 10:22:43;;;;;;;13.73;9.07;;;32.00;99.80;;;;;;5044613;28;20028;-84
2023/06/20 10:25:14;;;;;;;9.38;7.78;;;31.60;99.90;;;;;;5062182;28;20027;-84
2023/06/20 10:28:19;;;;;;;15.55;9.75;;;31.90;99.90;;;;;;5069049;28;20103;-84
2023/06/20 10:30:50;;;;;;;13.45;8.98;;;31.70;99.90;;;;;;5068605;28;20234;-84
2023/06/20 10:33:28;;;;;;;10.43;7.93;;;31.60;99.90;;;;;;5068318;28;20040;-84
2023/06/20 10:35:57;;;;;;;9.05;8.18;;;31.60;99.90;;;;;;5060715;28;20370;-84
2023/06/20 10:38:24;;;;;;;11.02;7.20;;;31.40;99.90;;;;;;5055820;28;20036;-84
2023/06/20 10:41:10;;;;;;;9.73;7.70;;;30.70;99.90;;;;;;5052919;28;21233;-84
2023/06/20 10:43:53;;;;;;;8.73;7.38;;;30.80;99.90;;;;;;5056332;28;20537;-83
2023/06/20 10:46:28;;;;;;;9.52;7.47;;;31.00;98.50;;;;;;5063666;28;20025;-84
2023/06/20 10:48:54;;;;;;;10.43;7.95;;;31.10;98.40;;;;;;5047030;28;20062;-84
2023/06/20 10:51:21;;;;;;;9.88;6.93;;;30.80;98.00;;;;;;5070603;28;20103;-85
2023/06/20 10:53:47;;;;;;;8.15;6.55;;;30.50;98.10;;;;;;5082139;28;20119;-85
2023/06/20 10:56:23;;;;;;;8.57;7.78;;;30.50;98.40;;;;;;5088564;28;20418;-85
2023/06/20 10:58:49;;;;;;;8.38;7.18;;;30.20;98.20;;;;;;5049463;28;20028;-84
2023/06/20 11:01:17;;;;;;;9.13;7.32;;;30.50;97.30;;;;;;5063238;28;20530;-82
2023/06/20 11:03:45;;;;;;;10.98;7.13;;;30.50;98.50;;;;;;5047106;28;20049;-83
2023/06/20 11:06:30;;;;;;;7.68;6.70;;;31.20;97.70;;;;;;5068123;28;20025;-85
2023/06/20 11:08:56;;;;;;;12.38;7.80;;;31.50;96.50;;;;;;5060015;28;20044;-83
2023/06/20 11:11:39;;;;;;;9.88;7.82;;;31.30;96.60;;;;;;5068213;28;20038;-84
2023/06/20 11:14:15;;;;;;;14.32;9.05;;;31.20;96.90;;;;;;5067588;28;20036;-84
2023/06/20 11:16:42;;;;;;;8.52;7.43;;;31.50;97.30;;;;;;5046523;28;20033;-84
2023/06/20 11:19:08;;;;;;;9.60;7.32;;;31.80;96.90;;;;;;5064296;28;20035;-84
2023/06/20 11:21:34;;;;;;;11.32;7.25;;;32.30;96.70;;;;;;5048698;28;20483;-84
2023/06/20 11:24:20;;;;;;;8.35;6.85;;;32.50;96.10;;;;;;5049148;28;20037;-84
2023/06/20 11:26:46;;;;;;;11.88;7.03;;;32.10;94.90;;;;;;5059136;28;20073;-84
2023/06/20 11:29:12;;;;;;;11.40;7.35;;;31.80;94.50;;;;;;5066470;28;20028;-84
2023/06/20 11:31:38;;;;;;;13.77;7.70;;;31.70;94.40;;;;;;5047381;28;20077;-84
2023/06/20 11:34:10;;;;;;;7.90;6.70;;;32.30;93.30;;;;;;5067473;28;20082;-85
2023/06/20 11:36:38;;;;;;;10.27;6.60;;;31.90;93.80;;;;;;5070706;28;20129;-85
2023/06/20 11:39:09;;;;;;;9.70;7.15;;;32.00;93.80;;;;;;5063569;28;20028;-85
2023/06/20 11:41:35;;;;;;;;;;;31.50;95.10;;;;;;5051401;28;20024;-85
2023/06/20 11:44:02;;;;;;;11.95;8.40;;;31.80;95.30;;;;;;5067242;28;19912;-84
2023/06/20 11:46:28;;;;;;;9.90;7.85;;;32.30;94.70;;;;;;5045603;28;20075;-84
2023/06/20 11:48:58;;;;;;;13.05;8.13;;;32.30;94.60;;;;;;5079433;28;20032;-84
2023/06/20 11:51:29;;;;;;;11.73;7.43;;;31.20;94.90;;;;;;5075574;28;20535;-84
2023/06/20 11:54:04;;;;;;;10.63;8.82;;;31.10;97.00;;;;;;5055497;28;20029;-84
2023/06/20 11:56:30;;;;;;;12.02;7.75;;;30.80;96.40;;;;;;5071721;28;20541;-84
2023/06/20 11:58:56;;;;;;;9.65;7.70;;;31.10;96.00;;;;;;5064276;28;20103;-84
2023/06/20 12:01:24;;;;;;;10.10;7.95;;;31.30;96.20;;;;;;5058332;28;20124;-84
2023/06/20 12:04:03;;;;;;;10.43;8.10;;;31.30;95.60;;;;;;5055316;28;20021;-83
2023/06/20 12:06:34;;;;;;;11.90;7.63;;;31.40;94.30;;;;;;5060053;28;20044;-84
2023/06/20 12:09:13;;;;;;;12.27;7.00;;;32.00;95.00;;;;;;5065687;28;20029;-83
2023/06/20 12:11:56;;;;;;;10.13;7.10;;;31.80;93.80;;;;;;5048542;28;20025;-84
2023/06/20 12:14:24;;;;;;;10.73;7.85;;;31.60;94.60;;;;;;5073495;28;20055;-84
2023/06/20 12:16:51;;;;;;;10.45;7.50;;;31.50;94.30;;;;;;5078534;28;20033;-84
2023/06/20 12:19:19;;;;;;;8.73;7.53;;;31.20;93.50;;;;;;5070028;28;20212;-84
2023/06/20 12:22:34;;;;;;;9.70;7.72;;;31.60;94.90;;;;;;5088276;28;20553;-84
2023/06/20 12:25:00;;;;;;;7.22;6.63;;;32.20;92.80;;;;;;5063508;28;20719;-84
2023/06/20 12:27:26;;;;;;;8.13;7.00;;;32.20;93.30;;;;;;5071417;28;20028;-85
2023/06/20 12:29:52;;;;;;;10.68;7.38;;;32.50;93.60;;;;;;5044539;28;20035;-85
2023/06/20 12:32:17;;;;;;;9.85;6.32;;;33.10;93.30;;;;;;5079492;28;20086;-84
2023/06/20 12:34:44;;;;;;;9.75;6.50;;;33.60;90.30;;;;;;5045147;28;20028;-84
2023/06/20 12:37:10;;;;;;;6.68;5.45;;;33.40;92.30;;;;;;5059030;28;20499;-85
2023/06/20 12:39:36;;;;;;;7.35;5.63;;;33.90;90.10;;;;;;5068946;28;20028;-85
2023/06/20 12:42:02;;;;;;;8.02;6.57;;;34.20;87.10;;;;;;5052460;28;20037;-84
2023/06/20 12:44:31;;;;;;;7.13;5.30;;;34.10;90.00;;;;;;5064755;28;20021;-84
2023/06/20 12:47:12;;;;;;;8.32;5.18;;;34.10;85.00;;;;;;5083309;28;20039;-84
2023/06/20 12:49:38;;;;;;;12.38;5.20;;;33.90;87.10;;;;;;5072674;28;20033;-84
2023/06/20 12:52:06;;;;;;;7.38;5.88;;;33.50;84.80;;;;;;5061574;28;20028;-84
2023/06/20 12:54:31;;;;;;;7.68;5.15;;;34.00;84.40;;;;;;5079327;28;20475;-84
2023/06/20 12:56:57;;;;;;;;;;;34.80;85.60;;;;;;5088255;28;20025;-84
2023/06/20 12:59:23;;;;;;;;;;;35.50;82.30;;;;;;5073416;28;19962;-84
2023/06/20 13:01:48;;;;;;;;;;;34.90;81.90;;;;;;5071998;28;20260;-84
2023/06/20 13:04:32;;;;;;;;;;;34.40;76.70;;;;;;5051302;28;20359;-83
2023/06/20 13:06:59;;;;;;;;;;;32.90;86.90;;;;;;5065126;28;20483;-84
2023/06/20 13:09:24;;;;;;;;;;;33.10;84.20;;;;;;5066815;28;20033;-84
2023/06/20 13:11:50;;;;;;;;;;;33.50;83.50;;;;;;5067745;28;20374;-84
2023/06/20 13:14:17;;;;;;;;;;;33.10;80.30;;;;;;5069762;28;19991;-84
2023/06/20 13:16:43;;;;;;;;;;;33.10;86.40;;;;;;5067905;28;20268;-84
2023/06/20 13:19:09;;;;;;;;;;;33.60;86.70;;;;;;5065482;28;19920;-84
2023/06/20 13:21:34;;;;;;;;;;;33.80;88.20;;;;;;5049022;28;19956;-86
2023/06/20 13:24:00;;;;;;;;;;;33.80;86.50;;;;;;5067920;28;19983;-85
2023/06/20 13:26:25;;;;;;;;;;;34.20;85.70;;;;;;5065427;28;19916;-85
2023/06/20 13:28:51;;;;;;;;;;;34.90;84.50;;;;;;5067508;28;20287;-85
2023/06/20 13:31:17;;;;;;;;;;;35.40;80.30;;;;;;5056697;28;19912;-83
2023/06/20 13:33:42;;;;;;;;;;;35.40;75.00;;;;;;5066715;28;20003;-85
2023/06/20 13:36:08;;;;;;;;;;;35.30;74.50;;;;;;5053458;28;19909;-84
2023/06/20 13:38:34;;;;;;;;;;;35.20;80.70;;;;;;5069973;28;20003;-85
2023/06/20 13:40:59;;;;;;;;;;;35.00;75.40;;;;;;5067224;28;19908;-84
2023/06/20 13:43:25;;;;;;;;;;;35.00;80.10;;;;;;5067747;28;19917;-85
2023/06/20 13:45:50;;;;;;;;;;;35.50;80.50;;;;;;5054049;28;19951;-85
2023/06/20 13:48:16;;;;;;;;;;;35.70;77.50;;;;;;5066849;28;20014;-84
2023/06/20 13:50:42;;;;;;;;;;;35.50;77.70;;;;;;5067192;28;19955;-83
2023/06/20 13:53:08;;;;;;;;;;;34.80;78.30;;;;;;5049185;28;19963;-84